Time;durP1;ratioP1;P1;durP2;ratioP2;P2;SDS_P1;SDS_P2;PMS_P1;PMS_P2;Temp;Humidity;BMP_temperature;BMP_pressure;BME280_temperature;BME280_humidity;BME280_pressure;Samples;Min_cycle;Max_cycle;Signal;HPM_P1;HPM_P2
2023/12/12 00:01:24;;;;;;;32.78;24.00;;;;;;;6.14;66.13;94333.72;4176100;28;20068;-68
2023/12/12 00:03:26;;;;;;;37.22;24.63;;;;;;;6.09;66.12;94317.72;4177952;28;20491;-68
2023/12/12 00:05:31;;;;;;;34.53;23.88;;;;;;;6.09;66.21;94312.53;4174490;28;20112;-68
2023/12/12 00:07:33;;;;;;;37.22;25.52;;;;;;;6.08;66.37;94310.88;4176883;28;20045;-69
2023/12/12 00:09:35;;;;;;;36.63;25.63;;;;;;;5.79;67.12;94312.72;4174257;28;20045;-68
2023/12/12 00:11:37;;;;;;;39.40;26.20;;;;;;;5.69;67.53;94302.31;4171164;28;20072;-69
2023/12/12 00:13:39;;;;;;;42.95;27.05;;;;;;;5.72;67.53;94305.47;4174845;28;20099;-68
2023/12/12 00:15:41;;;;;;;35.50;25.35;;;;;;;5.84;67.84;94300.09;4170974;28;20076;-68
2023/12/12 00:17:43;;;;;;;42.20;26.75;;;;;;;5.97;67.19;94297.22;4168224;28;20128;-66
2023/12/12 00:19:45;;;;;;;41.03;26.80;;;;;;;6.03;66.73;94281.88;4177628;28;20049;-68
2023/12/12 00:21:48;;;;;;;40.38;25.50;;;;;;;6.10;66.79;94275.16;4171169;28;20045;-69
2023/12/12 00:23:50;;;;;;;34.60;24.58;;;;;;;6.21;66.55;94284.56;4169233;28;20049;-69
2023/12/12 00:25:52;;;;;;;37.42;24.98;;;;;;;6.30;66.22;94308.88;4166098;28;20064;-69
2023/12/12 00:27:53;;;;;;;41.63;25.58;;;;;;;6.30;65.78;94324.50;4165853;28;20096;-69
2023/12/12 00:29:55;;;;;;;40.13;25.95;;;;;;;6.30;65.71;94314.94;4174866;28;20131;-68
2023/12/12 00:31:57;;;;;;;39.30;24.92;;;;;;;6.35;66.14;94311.91;4176270;28;20411;-68
2023/12/12 00:33:59;;;;;;;37.28;24.48;;;;;;;6.38;65.58;94316.81;4174875;28;20132;-69
2023/12/12 00:36:01;;;;;;;38.45;23.80;;;;;;;6.40;65.71;94307.06;4175394;28;20074;-68
2023/12/12 00:38:03;;;;;;;38.42;23.67;;;;;;;6.45;65.58;94311.84;4176273;28;20095;-70
2023/12/12 00:40:06;;;;;;;40.03;23.30;;;;;;;6.48;65.32;94324.59;4176668;28;20353;-68
2023/12/12 00:42:07;;;;;;;34.00;22.33;;;;;;;6.41;65.06;94328.69;4172262;28;20127;-67
2023/12/12 00:44:09;;;;;;;37.60;22.17;;;;;;;6.28;65.02;94342.88;4177271;28;20084;-67
2023/12/12 00:46:11;;;;;;;34.17;22.35;;;;;;;6.23;65.23;94328.63;4167738;28;20484;-70
2023/12/12 00:48:13;;;;;;;35.33;21.67;;;;;;;6.26;65.79;94323.13;4174341;28;20045;-69
2023/12/12 00:50:15;;;;;;;31.58;21.05;;;;;;;6.31;65.61;94310.53;4174066;28;20091;-69
2023/12/12 00:52:17;;;;;;;35.55;21.48;;;;;;;6.35;65.54;94296.28;4176250;28;20076;-70
2023/12/12 00:54:19;;;;;;;31.60;22.48;;;;;;;6.35;65.50;94309.31;4177460;28;20056;-66
2023/12/12 00:56:21;;;;;;;35.83;23.55;;;;;;;6.03;65.87;94320.06;4173453;28;20053;-67
2023/12/12 00:58:23;;;;;;;36.63;24.50;;;;;;;5.67;67.04;94323.22;4165329;28;20123;-68
2023/12/12 01:00:24;;;;;;;40.15;25.50;;;;;;;5.32;68.42;94324.63;4166323;28;20064;-68
2023/12/12 01:02:26;;;;;;;48.33;31.85;;;;;;;4.62;71.87;94330.78;4168867;28;20045;-69
2023/12/12 01:04:33;;;;;;;46.13;30.02;;;;;;;4.70;72.21;94325.75;4160401;28;20053;-69
2023/12/12 01:06:35;;;;;;;43.40;31.17;;;;;;;4.85;71.41;94321.81;4163907;28;20057;-69
2023/12/12 01:08:37;;;;;;;44.47;30.50;;;;;;;5.04;70.86;94330.63;4162846;28;20049;-68
2023/12/12 01:10:39;;;;;;;46.55;31.08;;;;;;;5.00;70.87;94332.66;4162790;28;20060;-67
2023/12/12 01:12:41;;;;;;;52.80;32.63;;;;;;;4.59;72.24;94344.03;4163332;28;20457;-69
2023/12/12 01:14:43;;;;;;;51.97;32.38;;;;;;;4.49;72.36;94344.78;4173048;28;20066;-69
2023/12/12 01:16:44;;;;;;;49.10;34.22;;;;;;;4.51;72.71;94336.88;4166141;28;20109;-70
2023/12/12 01:18:46;;;;;;;53.60;33.45;;;;;;;4.59;73.16;94346.63;4176265;28;20049;-68
2023/12/12 01:20:48;;;;;;;52.30;33.80;;;;;;;4.65;72.29;94352.09;4170664;28;20049;-70
2023/12/12 01:22:50;;;;;;;51.67;34.33;;;;;;;4.71;71.93;94337.75;4171718;28;20257;-69
2023/12/12 01:24:52;;;;;;;48.38;33.42;;;;;;;4.95;72.00;94337.44;4173067;28;20045;-69
2023/12/12 01:26:54;;;;;;;46.88;32.72;;;;;;;5.16;71.53;94345.09;4171280;28;20541;-70
2023/12/12 01:28:56;;;;;;;53.08;34.10;;;;;;;5.13;70.21;94358.34;4175662;28;20053;-68
2023/12/12 01:30:59;;;;;;;59.17;36.10;;;;;;;4.65;71.83;94365.06;4174364;28;20115;-69
2023/12/12 01:33:01;;;;;;;51.47;35.92;;;;;;;4.61;72.40;94348.13;4176240;28;20566;-68
2023/12/12 01:35:03;;;;;;;44.92;32.05;;;;;;;4.53;73.07;94350.53;4176675;28;20045;-69
2023/12/12 01:37:05;;;;;;;52.03;34.03;;;;;;;4.63;72.91;94341.03;4175736;28;20056;-68
2023/12/12 01:39:07;;;;;;;44.63;29.70;;;;;;;4.50;72.77;94332.66;4163184;28;20574;-69
2023/12/12 01:41:09;;;;;;;47.53;29.88;;;;;;;4.59;72.89;94313.69;4176719;28;20271;-69
2023/12/12 01:43:10;;;;;;;44.10;30.70;;;;;;;4.77;72.36;94316.47;4167162;28;20053;-68
2023/12/12 01:45:12;;;;;;;45.78;30.00;;;;;;;4.95;72.33;94308.88;4164696;28;20480;-67
2023/12/12 01:47:17;;;;;;;40.03;28.02;;;;;;;5.18;71.33;94288.66;4164080;28;20049;-70
2023/12/12 01:49:19;;;;;;;43.97;29.23;;;;;;;5.38;71.06;94286.06;4176519;28;20060;-67
2023/12/12 01:51:21;;;;;;;49.78;30.75;;;;;;;5.45;69.78;94300.16;4170145;28;20500;-69
2023/12/12 01:53:27;;;;;;;46.63;30.92;;;;;;;5.22;70.46;94303.00;4173753;28;20056;-68
2023/12/12 01:55:29;;;;;;;46.85;30.10;;;;;;;5.16;70.77;94308.75;4169466;28;20085;-68
2023/12/12 01:57:31;;;;;;;44.00;30.00;;;;;;;5.24;70.74;94306.28;4167985;28;20048;-69
2023/12/12 01:59:34;;;;;;;47.22;29.65;;;;;;;5.34;70.28;94309.72;4174749;28;20171;-69
2023/12/12 02:01:36;;;;;;;43.17;30.80;;;;;;;5.45;70.01;94320.94;4177570;28;20154;-68
2023/12/12 02:03:40;;;;;;;44.33;29.90;;;;;;;5.36;69.66;94316.56;4163685;28;20052;-67
2023/12/12 02:05:42;;;;;;;45.47;32.30;;;;;;;5.09;70.81;94331.03;4166386;28;20163;-69
2023/12/12 02:07:44;;;;;;;50.13;32.78;;;;;;;4.78;71.62;94333.69;4179245;28;20056;-68
2023/12/12 02:09:48;;;;;;;53.67;36.03;;;;;;;4.44;72.92;94340.97;4164198;28;20076;-68
2023/12/12 02:11:50;;;;;;;51.15;35.33;;;;;;;4.46;73.05;94347.66;4168316;28;20053;-69
2023/12/12 02:13:52;;;;;;;56.05;35.38;;;;;;;4.59;72.69;94338.84;4170080;28;20046;-70
2023/12/12 02:15:54;;;;;;;57.67;35.50;;;;;;;4.75;72.51;94326.16;4164845;28;20136;-68
2023/12/12 02:17:56;;;;;;;53.80;36.17;;;;;;;4.93;72.19;94316.78;4177387;28;20883;-67
2023/12/12 02:19:58;;;;;;;52.15;35.00;;;;;;;5.07;71.43;94325.13;4191879;28;20075;-67
2023/12/12 02:22:00;;;;;;;53.50;34.42;;;;;;;5.17;70.48;94338.97;4178373;28;20052;-69
2023/12/12 02:24:02;;;;;;;52.95;35.53;;;;;;;5.00;70.28;94344.81;4173798;28;20048;-69
2023/12/12 02:26:04;;;;;;;55.85;36.47;;;;;;;4.87;70.91;94343.28;4173599;28;20049;-68
2023/12/12 02:28:07;;;;;;;55.55;37.00;;;;;;;4.55;72.66;94351.22;4174806;28;20045;-68
2023/12/12 02:30:11;;;;;;;56.95;38.53;;;;;;;4.51;72.06;94350.66;4178105;28;20377;-68
2023/12/12 02:32:13;;;;;;;53.42;37.63;;;;;;;4.55;72.20;94346.03;4177045;28;20488;-68
2023/12/12 02:34:15;;;;;;;59.83;39.45;;;;;;;4.50;72.99;94356.00;4179227;28;20492;-68
2023/12/12 02:36:16;;;;;;;55.25;38.63;;;;;;;4.57;72.69;94349.34;4176653;28;20088;-69
2023/12/12 02:38:18;;;;;;;55.90;37.42;;;;;;;4.64;72.51;94358.22;4171114;28;20045;-70
2023/12/12 02:40:20;;;;;;;49.25;34.75;;;;;;;4.40;72.67;94365.50;4171432;28;20056;-65
2023/12/12 02:42:22;;;;;;;53.17;34.05;;;;;;;4.23;72.96;94372.94;4177896;28;20057;-69
2023/12/12 02:44:24;;;;;;;51.97;32.67;;;;;;;4.09;73.02;94379.28;4178907;28;20152;-67
2023/12/12 02:46:26;;;;;;;47.78;31.90;;;;;;;3.84;73.75;94383.06;4176765;28;20132;-68
2023/12/12 02:48:28;;;;;;;48.50;33.00;;;;;;;3.66;74.72;94379.41;4177980;28;20052;-68
2023/12/12 02:50:30;;;;;;;47.72;32.15;;;;;;;3.69;74.90;94374.78;4178185;28;20106;-69
2023/12/12 02:52:32;;;;;;;49.05;31.08;;;;;;;3.96;74.76;94378.66;4178341;28;20049;-68
2023/12/12 02:54:34;;;;;;;48.53;30.88;;;;;;;4.24;73.38;94386.75;4178521;28;20504;-68
2023/12/12 02:56:36;;;;;;;50.50;31.55;;;;;;;4.48;72.82;94381.25;4176834;28;20148;-68
2023/12/12 02:58:38;;;;;;;44.17;29.35;;;;;;;4.69;72.35;94376.03;4175051;28;20049;-69
2023/12/12 03:00:40;;;;;;;49.72;31.25;;;;;;;4.80;71.41;94362.94;4173407;28;20085;-69
2023/12/12 03:02:42;;;;;;;49.15;30.73;;;;;;;4.89;71.28;94350.94;4173765;28;20056;-67
2023/12/12 03:04:45;;;;;;;39.80;28.38;;;;;;;5.05;70.67;94359.00;4175654;28;20114;-68
2023/12/12 03:06:46;;;;;;;47.05;30.95;;;;;;;5.17;70.70;94348.53;4159326;28;20084;-70
2023/12/12 03:08:48;;;;;;;44.97;30.08;;;;;;;5.22;70.40;94352.34;4171880;28;20049;-67
2023/12/12 03:10:50;;;;;;;46.85;31.27;;;;;;;5.38;70.15;94348.41;4175828;28;20045;-69
2023/12/12 03:12:52;;;;;;;43.53;29.02;;;;;;;5.50;69.77;94342.13;4174002;28;20049;-68
2023/12/12 03:14:54;;;;;;;47.10;29.52;;;;;;;5.50;69.09;94326.53;4178317;28;20133;-70
2023/12/12 03:16:59;;;;;;;47.60;29.20;;;;;;;5.64;68.94;94331.31;4178148;28;20053;-68
2023/12/12 03:19:01;;;;;;;44.17;27.05;;;;;;;5.59;68.24;94327.47;4176735;28;20045;-66
2023/12/12 03:21:03;;;;;;;43.63;28.88;;;;;;;5.44;68.80;94324.47;4169313;28;20382;-69
2023/12/12 03:23:05;;;;;;;46.90;29.85;;;;;;;5.21;69.22;94319.56;4177690;28;20116;-69
2023/12/12 03:25:07;;;;;;;41.53;26.83;;;;;;;5.17;69.95;94315.59;4179372;28;20052;-68
2023/12/12 03:27:10;;;;;;;41.05;27.05;;;;;;;5.03;70.17;94327.19;4177913;28;20106;-68
2023/12/12 03:29:12;;;;;;;38.05;25.55;;;;;;;4.98;70.55;94344.13;4166905;28;20045;-66
2023/12/12 03:31:14;;;;;;;38.72;24.70;;;;;;;4.82;70.92;94324.69;4176517;28;20063;-69
2023/12/12 03:33:16;;;;;;;38.60;24.63;;;;;;;4.67;70.92;94326.03;4177526;28;20049;-67
2023/12/12 03:35:18;;;;;;;39.65;25.13;;;;;;;4.75;71.06;94331.34;4177069;28;20053;-69
2023/12/12 03:37:19;;;;;;;36.70;25.50;;;;;;;4.75;70.87;94328.75;4174682;28;20052;-68
2023/12/12 03:39:21;;;;;;;36.33;25.20;;;;;;;4.86;71.25;94313.09;4167066;28;20060;-68
2023/12/12 03:41:24;;;;;;;41.00;27.98;;;;;;;5.05;71.03;94314.06;4173029;28;20049;-68
2023/12/12 03:43:25;;;;;;;39.63;27.10;;;;;;;4.97;70.77;94313.91;4162798;28;20372;-68
2023/12/12 03:45:27;;;;;;;41.53;27.92;;;;;;;4.82;71.08;94309.13;4175521;28;20056;-67
2023/12/12 03:47:29;;;;;;;40.30;25.52;;;;;;;4.72;71.58;94316.06;4174123;28;20052;-68
2023/12/12 03:49:31;;;;;;;41.85;26.20;;;;;;;4.65;71.90;94320.16;4177685;28;20091;-67
2023/12/12 03:51:33;;;;;;;36.78;25.40;;;;;;;4.82;72.15;94327.28;4178093;28;20404;-68
2023/12/12 03:53:36;;;;;;;40.58;25.75;;;;;;;5.04;71.84;94338.41;4175411;28;20471;-69
2023/12/12 03:55:37;;;;;;;43.55;27.80;;;;;;;5.23;71.01;94333.22;4178286;28;20546;-68
2023/12/12 03:57:39;;;;;;;44.22;29.23;;;;;;;5.41;70.39;94335.16;4164935;28;20052;-68
2023/12/12 03:59:41;;;;;;;51.53;31.00;;;;;;;5.47;70.09;94319.84;4177188;28;20116;-68
2023/12/12 04:01:49;;;;;;;47.08;31.50;;;;;;;5.40;69.73;94330.91;4176706;28;20045;-69
2023/12/12 04:03:51;;;;;;;45.10;30.85;;;;;;;5.20;70.01;94330.88;4178148;28;20404;-69
2023/12/12 04:05:53;;;;;;;43.63;30.70;;;;;;;5.20;70.50;94325.69;4171211;28;20060;-74
2023/12/12 04:07:55;;;;;;;42.13;29.60;;;;;;;5.22;70.10;94344.56;4170545;28;20053;-68
2023/12/12 04:09:57;;;;;;;41.40;28.55;;;;;;;5.18;69.74;94348.38;4165911;28;20145;-68
2023/12/12 04:11:59;;;;;;;45.53;29.35;;;;;;;5.18;70.13;94352.75;4162995;28;20132;-68
2023/12/12 04:14:01;;;;;;;47.03;30.10;;;;;;;5.23;70.31;94340.22;4183007;28;20143;-67
2023/12/12 04:16:03;;;;;;;43.58;28.77;;;;;;;5.31;69.56;94359.34;4167391;28;20412;-69
2023/12/12 04:18:05;;;;;;;42.03;27.58;;;;;;;5.37;69.42;94352.78;4168023;28;20063;-68
2023/12/12 04:20:08;;;;;;;43.97;28.63;;;;;;;5.34;68.99;94368.66;4184758;28;20125;-68
2023/12/12 04:22:10;;;;;;;51.05;28.05;;;;;;;5.33;68.91;94370.44;4171302;28;20048;-68
2023/12/12 04:24:12;;;;;;;41.80;27.13;;;;;;;5.42;68.99;94375.75;4172028;28;20563;-68
2023/12/12 04:26:14;;;;;;;41.92;29.23;;;;;;;5.52;69.31;94372.19;4174632;28;20224;-69
2023/12/12 04:28:15;;;;;;;36.70;25.98;;;;;;;5.62;68.63;94368.81;4175773;28;20053;-70
2023/12/12 04:30:17;;;;;;;44.70;27.83;;;;;;;5.69;68.85;94362.91;4175313;28;20132;-69
2023/12/12 04:32:19;;;;;;;39.35;26.63;;;;;;;5.82;68.40;94382.59;4173545;28;20061;-68
2023/12/12 04:34:21;;;;;;;46.67;28.80;;;;;;;5.86;67.98;94383.97;4174359;28;20060;-68
2023/12/12 04:36:23;;;;;;;39.92;27.42;;;;;;;5.84;67.88;94371.09;4177176;28;20045;-70
2023/12/12 04:38:25;;;;;;;35.78;27.05;;;;;;;5.87;67.79;94383.84;4159206;28;20538;-70
2023/12/12 04:40:29;;;;;;;39.85;26.88;;;;;;;5.87;67.49;94396.84;4174156;28;20128;-69
2023/12/12 04:42:31;;;;;;;40.03;26.88;;;;;;;5.93;67.47;94380.66;4170795;28;20365;-67
2023/12/12 04:44:33;;;;;;;39.22;27.65;;;;;;;5.88;67.12;94382.88;4171223;28;20069;-69
2023/12/12 04:46:35;;;;;;;43.47;26.67;;;;;;;5.93;67.63;94395.44;4175597;28;20138;-68
2023/12/12 04:48:40;;;;;;;40.38;26.48;;;;;;;5.90;66.92;94387.94;4175123;28;20048;-71
2023/12/12 04:50:42;;;;;;;39.75;25.55;;;;;;;5.87;67.42;94391.63;4176424;28;20135;-68
2023/12/12 04:52:44;;;;;;;41.40;27.30;;;;;;;5.90;67.51;94388.75;4175957;28;20131;-69
2023/12/12 04:54:45;;;;;;;41.75;25.70;;;;;;;6.00;67.71;94387.94;4163273;28;20057;-68
2023/12/12 04:56:47;;;;;;;39.15;26.75;;;;;;;6.03;67.07;94385.91;4173701;28;20057;-69
2023/12/12 04:58:49;;;;;;;42.22;26.52;;;;;;;6.12;67.09;94394.63;4172345;28;20042;-69
2023/12/12 05:00:51;;;;;;;36.95;24.98;;;;;;;6.10;66.94;94393.97;4176468;28;20114;-68
2023/12/12 05:02:53;;;;;;;41.20;26.20;;;;;;;6.09;66.77;94395.75;4175232;28;20084;-70
2023/12/12 05:04:55;;;;;;;38.83;25.63;;;;;;;6.12;66.76;94395.47;4177134;28;20080;-69
2023/12/12 05:06:57;;;;;;;36.75;25.52;;;;;;;6.07;66.79;94400.25;4167702;28;20142;-69
2023/12/12 05:08:59;;;;;;;36.75;23.70;;;;;;;6.15;66.97;94404.75;4162005;28;20052;-67
2023/12/12 05:11:00;;;;;;;38.10;25.30;;;;;;;6.13;66.25;94412.72;4173641;28;20160;-69
2023/12/12 05:13:02;;;;;;;39.90;25.67;;;;;;;6.17;66.58;94413.25;4162049;28;20057;-69
2023/12/12 05:15:05;;;;;;;37.20;24.50;;;;;;;6.25;66.19;94421.19;4164329;28;20447;-69
2023/12/12 05:17:07;;;;;;;42.80;25.30;;;;;;;6.23;66.07;94422.28;4165584;28;20049;-70
2023/12/12 05:19:12;;;;;;;38.00;25.70;;;;;;;6.27;66.08;94427.06;4180307;28;20370;-69
2023/12/12 05:21:14;;;;;;;36.70;24.73;;;;;;;6.29;66.15;94422.53;4172095;28;20049;-69
2023/12/12 05:23:16;;;;;;;43.50;24.05;;;;;;;6.25;65.98;94430.75;4167004;28;20098;-70
2023/12/12 05:25:18;;;;;;;38.92;24.58;;;;;;;6.31;65.87;94428.41;4164778;28;20088;-68
2023/12/12 05:27:22;;;;;;;38.58;25.17;;;;;;;6.32;65.82;94431.84;4172528;28;20122;-69
2023/12/12 05:29:24;;;;;;;33.30;23.83;;;;;;;6.31;65.83;94430.22;4172509;28;20526;-69
2023/12/12 05:31:26;;;;;;;36.83;24.15;;;;;;;6.24;65.90;94429.94;4168603;28;20056;-70
2023/12/12 05:33:28;;;;;;;36.58;22.98;;;;;;;6.28;65.96;94423.50;4164913;28;20049;-69
2023/12/12 05:35:30;;;;;;;35.58;22.08;;;;;;;6.31;66.16;94419.81;4164118;28;20132;-69
2023/12/12 05:37:32;;;;;;;38.40;23.58;;;;;;;6.31;66.13;94415.41;4178062;28;20057;-69
2023/12/12 05:39:34;;;;;;;32.47;22.65;;;;;;;6.39;65.55;94414.72;4167995;28;20459;-69
2023/12/12 05:41:36;;;;;;;32.95;21.38;;;;;;;6.39;65.83;94417.34;4178761;28;20045;-70
2023/12/12 05:43:38;;;;;;;33.75;22.02;;;;;;;6.45;65.53;94415.94;4170784;28;20053;-71
2023/12/12 05:45:40;;;;;;;35.35;21.70;;;;;;;6.50;65.51;94424.16;4178215;28;20172;-69
2023/12/12 05:47:42;;;;;;;33.17;22.73;;;;;;;6.52;65.24;94417.84;4178407;28;20540;-69
2023/12/12 05:49:44;;;;;;;30.58;21.13;;;;;;;6.53;65.19;94422.06;4174352;28;20042;-68
2023/12/12 05:51:47;;;;;;;30.92;21.38;;;;;;;6.51;65.38;94416.19;4166339;28;20061;-69
2023/12/12 05:53:48;;;;;;;34.45;21.83;;;;;;;6.30;64.95;94418.16;4179146;28;20053;-71
2023/12/12 05:55:50;;;;;;;35.88;21.35;;;;;;;5.98;66.58;94436.66;4179718;28;20055;-71
2023/12/12 05:57:52;;;;;;;33.70;21.92;;;;;;;6.03;67.08;94439.69;4175267;28;20048;-70
2023/12/12 05:59:54;;;;;;;33.80;21.23;;;;;;;6.08;66.79;94435.69;4166635;28;20099;-70
2023/12/12 06:01:56;;;;;;;31.73;21.65;;;;;;;6.00;67.10;94440.78;4166844;28;20049;-69
2023/12/12 06:03:58;;;;;;;31.17;21.45;;;;;;;6.09;66.94;94439.97;4177327;28;20122;-71
2023/12/12 06:06:02;;;;;;;34.15;22.27;;;;;;;6.19;66.56;94447.72;4172561;28;20099;-70
2023/12/12 06:08:04;;;;;;;;;;;;;;;6.35;66.08;94447.19;4178474;28;20053;-70
2023/12/12 06:10:06;;;;;;;36.65;21.30;;;;;;;6.43;66.39;94443.88;4178386;28;19971;-72
2023/12/12 06:12:10;;;;;;;;;;;;;;;6.45;65.92;94440.16;4166040;28;20477;-69
2023/12/12 06:14:12;;;;;;;33.60;20.98;;;;;;;6.48;65.50;94428.69;4169284;28;20370;-70
2023/12/12 06:16:14;;;;;;;35.05;20.83;;;;;;;6.48;65.82;94426.88;4174613;28;20077;-71
2023/12/12 06:18:19;;;;;;;33.05;21.25;;;;;;;6.55;65.83;94422.75;4177366;28;20131;-71
2023/12/12 06:20:21;;;;;;;28.33;20.63;;;;;;;6.47;65.92;94417.44;4169788;28;20045;-71
2023/12/12 06:22:23;;;;;;;28.02;20.50;;;;;;;6.53;65.84;94414.25;4180020;28;20051;-70
2023/12/12 06:24:25;;;;;;;29.80;20.17;;;;;;;6.65;65.45;94420.13;4173636;28;20100;-69
2023/12/12 06:26:26;;;;;;;29.35;19.52;;;;;;;6.70;65.62;94412.72;4171868;28;20052;-70
2023/12/12 06:28:28;;;;;;;26.75;19.80;;;;;;;6.67;65.35;94407.81;4177476;28;20060;-71
2023/12/12 06:30:30;;;;;;;31.88;19.90;;;;;;;6.88;65.14;94410.19;4172201;28;20091;-71
2023/12/12 06:32:32;;;;;;;32.47;19.38;;;;;;;7.34;63.97;94403.22;4175234;28;20050;-69
2023/12/12 06:34:34;;;;;;;31.88;18.63;;;;;;;7.21;63.00;94402.75;4172855;28;20461;-70
2023/12/12 06:36:37;;;;;;;35.42;19.63;;;;;;;7.15;63.28;94408.56;4179783;28;20071;-70
2023/12/12 06:38:39;;;;;;;29.73;18.40;;;;;;;7.18;63.85;94409.09;4171655;28;20429;-70
2023/12/12 06:40:41;;;;;;;40.20;19.38;;;;;;;6.14;66.41;94418.72;4171889;28;20048;-70
2023/12/12 06:42:47;;;;;;;33.00;21.05;;;;;;;5.89;67.60;94423.53;4170523;28;20110;-70
2023/12/12 06:44:49;;;;;;;34.17;20.58;;;;;;;5.85;67.81;94429.94;4176789;28;20068;-70
2023/12/12 06:46:50;;;;;;;27.65;19.35;;;;;;;6.02;67.96;94435.44;4176679;28;20060;-70
2023/12/12 06:48:52;;;;;;;37.75;21.20;;;;;;;6.08;66.92;94429.69;4164689;28;20056;-70
2023/12/12 06:50:54;;;;;;;34.22;21.35;;;;;;;6.08;66.96;94438.31;4175751;28;20049;-69
2023/12/12 06:52:56;;;;;;;34.20;20.00;;;;;;;6.03;67.43;94443.09;4179830;28;20115;-71
2023/12/12 06:54:58;;;;;;;40.47;22.88;;;;;;;5.71;68.45;94445.94;4179174;28;20052;-71
2023/12/12 06:57:00;;;;;;;33.25;20.08;;;;;;;5.78;68.50;94473.03;4177144;28;20174;-71
2023/12/12 06:59:02;;;;;;;36.80;22.17;;;;;;;5.77;68.75;94467.97;4175424;28;20083;-71
2023/12/12 07:01:04;;;;;;;31.73;22.13;;;;;;;5.79;68.72;94460.88;4180296;28;20115;-70
2023/12/12 07:03:06;;;;;;;36.88;21.75;;;;;;;5.90;68.74;94473.72;4179421;28;20083;-70
2023/12/12 07:05:08;;;;;;;31.65;21.35;;;;;;;6.11;68.39;94478.84;4161042;28;20180;-70
2023/12/12 07:07:11;;;;;;;36.38;20.95;;;;;;;6.34;67.85;94472.34;4181202;28;20053;-72
2023/12/12 07:09:14;;;;;;;30.73;21.50;;;;;;;6.60;67.05;94474.38;4171974;28;20049;-71
2023/12/12 07:11:16;;;;;;;33.97;21.85;;;;;;;6.64;65.50;94480.94;4163843;28;20128;-71
2023/12/12 07:13:18;;;;;;;32.92;20.48;;;;;;;6.48;66.21;94478.13;4165270;28;20144;-71
2023/12/12 07:15:20;;;;;;;48.30;20.05;;;;;;;6.61;66.01;94489.03;4164563;28;20390;-71
2023/12/12 07:17:22;;;;;;;29.98;19.48;;;;;;;6.55;65.37;94480.00;4165384;28;20053;-71
2023/12/12 07:19:24;;;;;;;29.42;18.55;;;;;;;6.71;65.67;94465.59;4176901;28;20496;-71
2023/12/12 07:21:26;;;;;;;25.77;18.45;;;;;;;6.94;65.10;94473.88;4169457;28;20045;-70
2023/12/12 07:23:29;;;;;;;39.35;21.15;;;;;;;7.13;64.88;94473.81;4173981;28;20147;-71
2023/12/12 07:25:31;;;;;;;34.58;19.40;;;;;;;7.34;63.72;94477.97;4166030;28;20055;-69
2023/12/12 07:27:33;;;;;;;37.53;20.27;;;;;;;7.51;63.37;94479.00;4162250;28;20418;-71
2023/12/12 07:29:35;;;;;;;33.80;19.38;;;;;;;7.49;62.90;94479.13;4167788;28;20041;-71
2023/12/12 07:31:38;;;;;;;30.40;19.38;;;;;;;7.32;63.08;94475.50;4177588;28;20530;-72
2023/12/12 07:33:39;;;;;;;42.22;21.83;;;;;;;7.14;63.77;94480.69;4161137;28;20099;-72
2023/12/12 07:35:41;;;;;;;37.67;21.80;;;;;;;6.88;64.37;94475.28;4167492;28;20299;-71
2023/12/12 07:37:43;;;;;;;37.58;21.40;;;;;;;7.00;64.85;94473.31;4175397;28;20057;-70
2023/12/12 07:39:46;;;;;;;39.58;22.67;;;;;;;7.17;63.71;94479.56;4168053;28;20111;-70
2023/12/12 07:41:48;;;;;;;38.17;22.00;;;;;;;7.11;64.07;94467.09;4171582;28;20056;-71
2023/12/12 07:43:49;;;;;;;46.60;22.95;;;;;;;6.96;65.08;94467.56;4174245;28;20088;-71
2023/12/12 07:45:52;;;;;;;33.28;21.58;;;;;;;7.01;64.99;94471.53;4166215;28;20386;-70
2023/12/12 07:47:54;;;;;;;35.42;22.00;;;;;;;6.78;65.96;94469.28;4169329;28;20051;-70
2023/12/12 07:49:57;;;;;;;39.60;22.95;;;;;;;6.73;66.09;94476.69;4177672;28;20146;-70
2023/12/12 07:51:59;;;;;;;37.17;23.45;;;;;;;6.79;65.81;94473.50;4169024;28;20049;-71
2023/12/12 07:54:03;;;;;;;36.10;20.60;;;;;;;6.75;66.29;94474.75;4180148;28;20438;-71
2023/12/12 07:56:06;;;;;;;40.38;23.40;;;;;;;6.69;66.73;94480.53;4176752;28;20498;-70
2023/12/12 07:58:08;;;;;;;36.42;21.92;;;;;;;6.90;65.96;94473.34;4175749;28;20051;-72
2023/12/12 08:00:10;;;;;;;34.97;22.33;;;;;;;6.73;65.75;94469.72;4177828;28;20111;-71
2023/12/12 08:02:12;;;;;;;29.77;17.85;;;;;;;6.71;66.25;94479.44;4164154;28;20456;-71
2023/12/12 08:04:14;;;;;;;32.65;19.75;;;;;;;6.36;67.80;94474.84;4169688;28;20049;-70
2023/12/12 08:06:16;;;;;;;40.83;21.45;;;;;;;6.27;68.33;94479.09;4176053;28;20131;-70
2023/12/12 08:08:22;;;;;;;35.13;20.90;;;;;;;6.32;68.37;94469.09;4160329;28;20054;-70
2023/12/12 08:10:23;;;;;;;39.70;21.33;;;;;;;6.56;67.83;94465.25;4178621;28;20081;-70
2023/12/12 08:12:25;;;;;;;44.38;22.67;;;;;;;6.78;67.69;94469.28;4176743;28;20063;-71
2023/12/12 08:14:27;;;;;;;40.75;21.08;;;;;;;6.81;67.38;94469.00;4178309;28;20193;-71
2023/12/12 08:16:31;;;;;;;36.70;21.17;;;;;;;6.85;67.31;94462.53;4163801;28;20049;-72
2023/12/12 08:18:32;;;;;;;;;;;;;;;7.03;66.94;94467.00;4174941;28;20045;-71
2023/12/12 08:20:34;;;;;;;31.02;18.13;;;;;;;7.21;66.53;94459.25;4170497;28;19987;-70
2023/12/12 08:22:37;;;;;;;35.20;18.10;;;;;;;7.36;66.01;94468.25;4177869;28;20045;-71
2023/12/12 08:24:39;;;;;;;29.40;17.15;;;;;;;7.38;66.42;94461.91;4177536;28;20519;-71
2023/12/12 08:26:44;;;;;;;26.90;15.50;;;;;;;7.58;65.17;94464.41;4166128;28;20482;-71
2023/12/12 08:28:46;;;;;;;24.33;14.95;;;;;;;7.76;65.26;94454.00;4171443;28;20064;-71
2023/12/12 08:30:48;;;;;;;28.67;14.98;;;;;;;7.93;64.14;94457.59;4175409;28;20041;-71
2023/12/12 08:32:50;;;;;;;30.40;14.40;;;;;;;8.02;64.10;94454.06;4176655;28;20065;-69
2023/12/12 08:34:52;;;;;;;27.83;13.80;;;;;;;8.02;64.40;94445.44;4176793;28;20045;-71
2023/12/12 08:36:54;;;;;;;20.85;10.85;;;;;;;8.12;63.28;94435.75;4178526;28;20083;-71
2023/12/12 08:38:58;;;;;;;31.15;12.70;;;;;;;8.25;63.32;94449.22;4177114;28;20468;-71
2023/12/12 08:40:59;;;;;;;27.35;10.60;;;;;;;8.41;62.43;94448.56;4178270;28;20475;-71
2023/12/12 08:43:02;;;;;;;28.23;11.30;;;;;;;8.36;62.66;94445.56;4177477;28;20488;-71
2023/12/12 08:45:05;;;;;;;29.42;12.60;;;;;;;8.37;62.48;94442.78;4177192;28;20049;-71
2023/12/12 08:47:07;;;;;;;16.27;8.18;;;;;;;8.43;62.75;94441.38;4176846;28;20077;-71
2023/12/12 08:49:09;;;;;;;24.55;10.57;;;;;;;8.53;62.50;94462.19;4159882;28;20222;-71
2023/12/12 08:51:11;;;;;;;20.08;8.05;;;;;;;8.44;61.78;94453.47;4167147;28;20167;-70
2023/12/12 08:53:13;;;;;;;18.95;8.18;;;;;;;8.37;61.70;94452.44;4178254;28;20045;-69
2023/12/12 08:55:15;;;;;;;23.23;9.10;;;;;;;8.24;62.00;94455.44;4176096;28;20045;-71
2023/12/12 08:57:18;;;;;;;18.77;7.53;;;;;;;8.34;62.36;94460.53;4173448;28;20041;-72
2023/12/12 08:59:21;;;;;;;23.73;10.68;;;;;;;8.25;61.75;94458.84;4174692;28;20061;-70
2023/12/12 09:01:23;;;;;;;29.42;9.77;;;;;;;8.34;62.33;94456.13;4167481;28;20053;-70
2023/12/12 09:03:25;;;;;;;21.27;9.48;;;;;;;8.39;61.59;94458.31;4176738;28;20077;-70
2023/12/12 09:05:27;;;;;;;18.98;7.78;;;;;;;8.36;61.81;94461.22;4164464;28;20071;-70
2023/12/12 09:07:28;;;;;;;20.42;8.57;;;;;;;8.40;61.55;94454.72;4167616;28;20128;-70
2023/12/12 09:09:31;;;;;;;16.23;8.65;;;;;;;8.42;61.62;94471.09;4175291;28;20057;-70
2023/12/12 09:11:35;;;;;;;20.25;9.57;;;;;;;8.45;61.79;94452.50;4179495;28;20045;-71
2023/12/12 09:13:37;;;;;;;;;;;;;;;8.58;60.98;94462.53;4172013;28;20056;-70
2023/12/12 09:15:39;;;;;;;18.90;8.93;;;;;;;8.55;61.45;94450.63;4179356;28;19927;-71
2023/12/12 09:17:41;;;;;;;18.08;8.05;;;;;;;8.66;60.66;94453.97;4179605;28;20057;-70
2023/12/12 09:19:43;;;;;;;21.23;10.75;;;;;;;8.71;60.97;94467.38;4179235;28;20053;-70
2023/12/12 09:21:48;;;;;;;23.98;8.77;;;;;;;8.77;61.03;94471.97;4177537;28;21563;-70
2023/12/12 09:23:50;;;;;;;19.40;8.55;;;;;;;8.90;60.99;94469.78;4180266;28;20048;-71
2023/12/12 09:25:52;;;;;;;17.27;8.73;;;;;;;8.90;60.19;94474.19;4177544;28;20075;-69
2023/12/12 09:27:54;;;;;;;23.85;10.05;;;;;;;8.88;61.50;94473.50;4176437;28;20089;-71
2023/12/12 09:29:55;;;;;;;29.83;10.25;;;;;;;8.90;61.16;94474.19;4171129;28;20049;-70